createdAt,value
2019-02-24T00:00:14.301Z,-3.67
2019-02-24T00:01:14.350Z,-3.64
2019-02-24T00:02:15.029Z,-3.64
2019-02-24T00:03:14.286Z,-3.63
2019-02-24T00:04:14.571Z,-3.64
2019-02-24T00:05:14.835Z,-3.77
2019-02-24T00:06:15.100Z,-3.80
2019-02-24T00:07:14.372Z,-3.81
2019-02-24T00:08:14.627Z,-3.83
2019-02-24T00:09:14.899Z,-3.83
2019-02-24T00:10:15.206Z,-3.87
2019-02-24T00:11:14.234Z,-3.86
2019-02-24T00:12:14.499Z,-3.91
2019-02-24T00:13:14.770Z,-3.90
2019-02-24T00:14:15.047Z,-3.81
2019-02-24T00:15:14.318Z,-3.81
2019-02-24T00:16:14.580Z,-3.90
2019-02-24T00:17:14.863Z,-3.93
2019-02-24T00:18:15.139Z,-3.91
2019-02-24T00:19:14.404Z,-3.90
2019-02-24T00:20:14.679Z,-3.91
2019-02-24T00:21:14.723Z,-3.88
2019-02-24T00:22:14.982Z,-3.90
2019-02-24T00:23:14.254Z,-3.84
2019-02-24T00:24:14.523Z,-3.83
2019-02-24T00:25:14.797Z,-3.84
2019-02-24T00:26:15.053Z,-3.86
2019-02-24T00:27:14.317Z,-3.88
2019-02-24T00:28:14.616Z,-3.87
2019-02-24T00:29:14.883Z,-3.86
2019-02-24T00:30:15.155Z,-3.81
2019-02-24T00:31:14.215Z,-3.77
2019-02-24T00:32:14.484Z,-3.77
2019-02-24T00:33:14.749Z,-3.88
2019-02-24T00:34:15.008Z,-3.98
2019-02-24T00:35:14.271Z,-4.11
2019-02-24T00:36:14.534Z,-4.15
2019-02-24T00:37:14.796Z,-4.16
2019-02-24T00:38:15.059Z,-4.14
2019-02-24T00:39:14.326Z,-4.09
2019-02-24T00:40:14.603Z,-4.06
2019-02-24T00:41:14.655Z,-4.01
2019-02-24T00:42:14.922Z,-3.97
2019-02-24T00:43:15.191Z,-3.95
2019-02-24T00:44:14.461Z,-3.95
2019-02-24T00:45:14.725Z,-3.95
2019-02-24T00:46:14.986Z,-3.95
2019-02-24T00:47:14.247Z,-3.87
2019-02-24T00:48:14.518Z,-3.74
2019-02-24T00:49:14.782Z,-3.70
2019-02-24T00:50:15.061Z,-3.67
2019-02-24T00:51:15.103Z,-3.71
2019-02-24T00:52:14.362Z,-3.77
2019-02-24T00:53:14.641Z,-3.84
2019-02-24T00:54:14.916Z,-3.86
2019-02-24T00:55:15.183Z,-3.86
2019-02-24T00:56:14.444Z,-3.80
2019-02-24T00:57:14.701Z,-3.74
2019-02-24T00:58:16.283Z,-3.67
2019-02-24T00:59:14.856Z,-3.59
2019-02-24T01:00:15.214Z,-3.63
2019-02-24T01:01:14.213Z,-3.61
2019-02-24T01:02:14.469Z,-3.57
2019-02-24T01:03:14.738Z,-3.54
2019-02-24T01:04:15.006Z,-3.44
2019-02-24T01:05:14.282Z,-3.53
2019-02-24T01:06:14.553Z,-3.53
2019-02-24T01:07:14.811Z,-3.49
2019-02-24T01:08:15.085Z,-3.44
2019-02-24T01:09:14.357Z,-3.51
2019-02-24T01:10:14.646Z,-3.49
2019-02-24T01:11:14.678Z,-3.53
2019-02-24T01:12:14.944Z,-3.53
2019-02-24T01:13:14.215Z,-3.54
2019-02-24T01:14:14.472Z,-3.56
2019-02-24T01:15:14.785Z,-3.51
2019-02-24T01:16:15.055Z,-3.53
2019-02-24T01:17:14.317Z,-3.47
2019-02-24T01:18:14.593Z,-3.43
2019-02-24T01:19:14.859Z,-3.44
2019-02-24T01:20:15.134Z,-3.44
2019-02-24T01:21:15.189Z,-3.46
2019-02-24T01:22:14.455Z,-3.41
2019-02-24T01:23:14.727Z,-3.41
2019-02-24T01:24:14.986Z,-3.41
2019-02-24T01:25:14.260Z,-3.46
2019-02-24T01:26:14.522Z,-3.37
2019-02-24T01:27:14.779Z,-3.40
2019-02-24T01:28:15.050Z,-3.46
2019-02-24T01:29:14.326Z,-3.53
2019-02-24T01:30:14.607Z,-3.53
2019-02-24T01:31:14.637Z,-3.56
2019-02-24T01:32:14.903Z,-3.46
2019-02-24T01:33:15.165Z,-3.49
2019-02-24T01:34:14.429Z,-3.53
2019-02-24T01:35:14.690Z,-3.60
2019-02-24T01:36:14.944Z,-3.74
2019-02-24T01:37:14.210Z,-3.73
2019-02-24T01:38:14.478Z,-3.80
2019-02-24T01:39:14.757Z,-3.78
2019-02-24T01:40:15.046Z,-3.76
2019-02-24T01:41:15.089Z,-3.81
2019-02-24T01:42:14.352Z,-3.81
2019-02-24T01:43:14.625Z,-3.81
2019-02-24T01:44:14.890Z,-3.83
2019-02-24T01:45:15.156Z,-3.83
2019-02-24T01:46:14.428Z,-3.86
2019-02-24T01:47:14.697Z,-3.87
2019-02-24T01:48:14.971Z,-3.88
2019-02-24T01:49:14.237Z,-3.80
2019-02-24T01:50:14.510Z,-3.88
2019-02-24T01:51:14.568Z,-3.95
2019-02-24T01:52:14.836Z,-4.05
2019-02-24T01:53:15.107Z,-4.06
2019-02-24T01:54:14.378Z,-4.09
2019-02-24T01:55:14.637Z,-4.04
2019-02-24T01:56:14.917Z,-4.04
2019-02-24T01:57:15.182Z,-4.08
2019-02-24T01:58:14.454Z,-4.19
2019-02-24T01:59:14.720Z,-4.26
2019-02-24T02:00:14.999Z,-4.30
2019-02-24T02:01:15.024Z,-4.33
2019-02-24T02:02:14.290Z,-4.23
2019-02-24T02:03:14.561Z,-4.27
2019-02-24T02:04:14.833Z,-4.30
2019-02-24T02:05:15.120Z,-4.33
2019-02-24T02:06:14.381Z,-4.29
2019-02-24T02:07:14.640Z,-4.29
2019-02-24T02:08:14.907Z,-4.36
2019-02-24T02:09:15.175Z,-4.40
2019-02-24T02:10:14.447Z,-4.53
2019-02-24T02:11:14.493Z,-4.53
2019-02-24T02:12:14.755Z,-4.61
2019-02-24T02:13:15.019Z,-4.61
2019-02-24T02:14:14.312Z,-4.56
2019-02-24T02:15:14.576Z,-4.56
2019-02-24T02:16:14.844Z,-4.54
2019-02-24T02:17:15.129Z,-4.57
2019-02-24T02:18:14.394Z,-4.61
2019-02-24T02:19:14.656Z,-4.57
2019-02-24T02:20:14.921Z,-4.57
2019-02-24T02:21:14.969Z,-4.57
2019-02-24T02:22:14.234Z,-4.56
2019-02-24T02:23:14.499Z,-4.54
2019-02-24T02:24:14.765Z,-4.54
2019-02-24T02:25:15.041Z,-4.56
2019-02-24T02:26:14.311Z,-4.52
2019-02-24T02:27:14.578Z,-4.49
2019-02-24T02:28:14.852Z,-4.47
2019-02-24T02:29:15.118Z,-4.49
2019-02-24T02:30:14.397Z,-4.49
2019-02-24T02:31:14.448Z,-4.49
2019-02-24T02:32:14.736Z,-4.47
2019-02-24T02:33:14.999Z,-4.47
2019-02-24T02:34:14.270Z,-4.47
2019-02-24T02:35:14.528Z,-4.49
2019-02-24T02:36:14.801Z,-4.50
2019-02-24T02:37:15.089Z,-4.50
2019-02-24T02:38:14.351Z,-4.54
2019-02-24T02:39:14.630Z,-4.52
2019-02-24T02:40:14.905Z,-4.54
2019-02-24T02:41:14.924Z,-4.53
2019-02-24T02:42:15.208Z,-4.53
2019-02-24T02:43:14.488Z,-4.47
2019-02-24T02:44:14.842Z,-4.47
2019-02-24T02:45:15.119Z,-4.49
2019-02-24T02:46:14.401Z,-4.45
2019-02-24T02:47:14.661Z,-4.42
2019-02-24T02:48:14.919Z,-4.37
2019-02-24T02:49:15.178Z,-4.35
2019-02-24T02:50:14.446Z,-4.36
2019-02-24T02:51:14.496Z,-4.39
2019-02-24T02:52:14.759Z,-4.46
2019-02-24T02:53:15.024Z,-4.43
2019-02-24T02:54:14.295Z,-4.43
2019-02-24T02:55:14.560Z,-4.46
2019-02-24T02:56:14.829Z,-4.50
2019-02-24T02:57:15.114Z,-4.53
2019-02-24T02:58:14.374Z,-4.50
2019-02-24T02:59:14.628Z,-4.53
2019-02-24T03:00:14.902Z,-4.50
2019-02-24T03:01:14.967Z,-4.53
2019-02-24T03:02:23.698Z,-4.54
2019-02-24T03:03:15.098Z,-4.54
2019-02-24T03:04:14.379Z,-4.50
2019-02-24T03:05:14.687Z,-4.49
2019-02-24T03:06:14.954Z,-4.32
2019-02-24T03:07:14.229Z,-4.25
2019-02-24T03:08:14.514Z,-4.18
2019-02-24T03:09:14.777Z,-4.18
2019-02-24T03:10:15.058Z,-4.09
2019-02-24T03:11:15.094Z,-4.25
2019-02-24T03:12:14.389Z,-4.50
2019-02-24T03:13:14.658Z,-4.49
2019-02-24T03:14:14.916Z,-4.52
2019-02-24T03:15:15.207Z,-4.45
2019-02-24T03:16:14.482Z,-4.49
2019-02-24T03:17:14.752Z,-4.52
2019-02-24T03:18:15.015Z,-4.52
2019-02-24T03:19:14.284Z,-4.52
2019-02-24T03:20:14.574Z,-4.50
2019-02-24T03:21:14.607Z,-4.57
2019-02-24T03:22:14.876Z,-4.67
2019-02-24T03:23:15.151Z,-4.77
2019-02-24T03:24:14.415Z,-4.75
2019-02-24T03:25:14.683Z,-4.81
2019-02-24T03:26:15.030Z,-4.86
2019-02-24T03:27:14.300Z,-4.88
2019-02-24T03:28:14.559Z,-4.86
2019-02-24T03:29:14.593Z,-4.84
2019-02-24T03:30:14.877Z,-4.81
2019-02-24T03:31:14.924Z,-4.75
2019-02-24T03:32:14.207Z,-4.78
2019-02-24T03:33:14.479Z,-4.75
2019-02-24T03:34:14.773Z,-4.71
2019-02-24T03:35:15.052Z,-4.73
2019-02-24T03:36:14.303Z,-4.73
2019-02-24T03:37:14.584Z,-4.67
2019-02-24T03:38:14.849Z,-4.68
2019-02-24T03:39:15.119Z,-4.70
2019-02-24T03:40:14.397Z,-4.60
2019-02-24T03:41:14.442Z,-4.63
2019-02-24T03:42:14.715Z,-4.60
2019-02-24T03:43:14.985Z,-4.60
2019-02-24T03:44:14.253Z,-4.57
2019-02-24T03:45:14.525Z,-4.56
2019-02-24T03:46:14.789Z,-4.53
2019-02-24T03:47:15.075Z,-4.54
2019-02-24T03:48:14.357Z,-4.53
2019-02-24T03:49:14.633Z,-4.53
2019-02-24T03:50:14.911Z,-4.58
2019-02-24T03:51:14.963Z,-4.54
2019-02-24T03:52:14.232Z,-4.56
2019-02-24T03:53:14.499Z,-4.57
2019-02-24T03:54:14.773Z,-4.60
2019-02-24T03:55:15.041Z,-4.57
2019-02-24T03:56:14.303Z,-4.53
2019-02-24T03:57:14.571Z,-4.53
2019-02-24T03:58:14.834Z,-4.53
2019-02-24T03:59:15.428Z,-4.53
2019-02-24T04:00:14.769Z,-4.57
2019-02-24T04:01:14.808Z,-4.60
2019-02-24T04:02:15.379Z,-4.56
2019-02-24T04:03:14.662Z,-4.58
2019-02-24T04:04:14.926Z,-4.47
2019-02-24T04:05:15.205Z,-4.46
2019-02-24T04:06:14.476Z,-4.47
2019-02-24T04:07:14.746Z,-4.33
2019-02-24T04:08:15.021Z,-4.27
2019-02-24T04:09:14.287Z,-4.30
2019-02-24T04:10:14.561Z,-4.18
2019-02-24T04:11:14.615Z,-4.19
2019-02-24T04:12:14.882Z,-4.18
2019-02-24T04:13:15.180Z,-4.15
2019-02-24T04:14:14.502Z,-4.18
2019-02-24T04:15:14.802Z,-4.19
2019-02-24T04:16:15.067Z,-4.19
2019-02-24T04:17:14.330Z,-4.22
2019-02-24T04:18:14.617Z,-4.21
2019-02-24T04:19:14.880Z,-4.30
2019-02-24T04:20:15.170Z,-4.46
2019-02-24T04:21:14.224Z,-4.53
2019-02-24T04:22:14.493Z,-4.81
2019-02-24T04:23:14.760Z,-4.89
2019-02-24T04:24:15.022Z,-4.57
2019-02-24T04:25:14.330Z,-4.58
2019-02-24T04:26:14.607Z,-4.37
2019-02-24T04:27:14.880Z,-4.27
2019-02-24T04:28:15.154Z,-4.29
2019-02-24T04:29:14.429Z,-4.18
2019-02-24T04:30:14.706Z,-4.19
2019-02-24T04:31:14.757Z,-4.27
2019-02-24T04:32:15.027Z,-4.45
2019-02-24T04:33:14.292Z,-4.45
2019-02-24T04:34:14.559Z,-4.53
2019-02-24T04:35:14.837Z,-4.56
2019-02-24T04:36:15.090Z,-4.63
2019-02-24T04:37:14.358Z,-4.67
2019-02-24T04:38:16.022Z,-4.71
2019-02-24T04:39:14.391Z,-4.70
2019-02-24T04:40:14.718Z,-4.74
2019-02-24T04:41:14.752Z,-4.73
2019-02-24T04:42:15.031Z,-4.71
2019-02-24T04:43:14.518Z,-4.74
2019-02-24T04:44:14.803Z,-4.68
2019-02-24T04:45:15.075Z,-4.68
2019-02-24T04:46:14.344Z,-4.68
2019-02-24T04:47:14.606Z,-4.67
2019-02-24T04:48:14.882Z,-4.68
2019-02-24T04:49:15.150Z,-4.67
2019-02-24T04:50:14.430Z,-4.70
2019-02-24T04:51:14.483Z,-4.70
2019-02-24T04:52:14.747Z,-4.71
2019-02-24T04:53:15.007Z,-4.71
2019-02-24T04:54:14.282Z,-4.70
2019-02-24T04:55:14.553Z,-4.64
2019-02-24T04:56:14.840Z,-4.65
2019-02-24T04:57:15.386Z,-4.63
2019-02-24T04:58:14.656Z,-4.65
2019-02-24T04:59:14.925Z,-4.65
2019-02-24T05:00:14.203Z,-4.58
2019-02-24T05:01:14.261Z,-4.50
2019-02-24T05:02:14.525Z,-4.42
2019-02-24T05:03:14.783Z,-4.46
2019-02-24T05:04:15.053Z,-4.40
2019-02-24T05:05:14.320Z,-4.36
2019-02-24T05:06:14.586Z,-4.36
2019-02-24T05:07:14.868Z,-4.25
2019-02-24T05:08:15.128Z,-4.32
2019-02-24T05:09:14.393Z,-4.35
2019-02-24T05:10:14.691Z,-4.39
2019-02-24T05:11:14.737Z,-4.39
2019-02-24T05:12:15.036Z,-4.39
2019-02-24T05:13:14.978Z,-4.37
2019-02-24T05:14:14.246Z,-4.39
2019-02-24T05:15:14.532Z,-4.40
2019-02-24T05:16:14.806Z,-4.40
2019-02-24T05:17:15.078Z,-4.40
2019-02-24T05:18:14.346Z,-4.37
2019-02-24T05:19:14.618Z,-4.36
2019-02-24T05:20:14.894Z,-4.39
2019-02-24T05:21:14.946Z,-4.35
2019-02-24T05:22:14.218Z,-4.36
2019-02-24T05:23:14.501Z,-4.45
2019-02-24T05:24:14.762Z,-4.43
2019-02-24T05:25:15.037Z,-4.37
2019-02-24T05:26:14.319Z,-4.45
2019-02-24T05:27:14.586Z,-4.42
2019-02-24T05:28:14.855Z,-4.45
2019-02-24T05:29:15.112Z,-4.45
2019-02-24T05:30:14.435Z,-4.45
2019-02-24T05:31:14.492Z,-4.42
2019-02-24T05:32:14.767Z,-4.43
2019-02-24T05:33:15.042Z,-4.49
2019-02-24T05:34:14.331Z,-4.43
2019-02-24T05:35:14.604Z,-4.27
2019-02-24T05:36:14.869Z,-4.21
2019-02-24T05:37:15.132Z,-4.21
2019-02-24T05:38:14.404Z,-4.23
2019-02-24T05:39:14.668Z,-4.29
2019-02-24T05:40:14.978Z,-4.35
2019-02-24T05:41:15.003Z,-4.46
2019-02-24T05:42:14.269Z,-4.46
2019-02-24T05:43:14.531Z,-4.42
2019-02-24T05:44:14.785Z,-4.42
2019-02-24T05:45:15.047Z,-4.45
2019-02-24T05:46:14.300Z,-4.50
2019-02-24T05:47:14.564Z,-4.43
2019-02-24T05:48:14.823Z,-4.42
2019-02-24T05:49:15.082Z,-4.45
2019-02-24T05:50:14.356Z,-4.47
2019-02-24T05:51:14.399Z,-4.47
2019-02-24T05:52:14.670Z,-4.60
2019-02-24T05:53:14.938Z,-4.58
2019-02-24T05:54:14.197Z,-4.57
2019-02-24T05:55:14.482Z,-4.61
2019-02-24T05:56:14.751Z,-4.60
2019-02-24T05:57:15.018Z,-4.47
2019-02-24T05:58:14.311Z,-4.43
2019-02-24T05:59:14.562Z,-4.52
2019-02-24T06:00:14.848Z,-4.53
2019-02-24T06:01:15.202Z,-4.50
2019-02-24T06:02:14.481Z,-4.52
2019-02-24T06:03:14.746Z,-4.50
2019-02-24T06:04:15.026Z,-4.50
2019-02-24T06:05:14.353Z,-4.52
2019-02-24T06:06:14.617Z,-4.45
2019-02-24T06:07:14.886Z,-4.47
2019-02-24T06:08:15.155Z,-4.50
2019-02-24T06:09:14.427Z,-4.50
2019-02-24T06:10:14.705Z,-4.50
2019-02-24T06:11:14.731Z,-4.50
2019-02-24T06:12:15.001Z,-4.50
2019-02-24T06:13:14.273Z,-4.49
2019-02-24T06:14:14.580Z,-4.49
2019-02-24T06:15:14.851Z,-4.42
2019-02-24T06:16:15.136Z,-4.29
2019-02-24T06:17:14.399Z,-4.22
2019-02-24T06:18:14.670Z,-4.32
2019-02-24T06:19:14.936Z,-4.32
2019-02-24T06:20:14.209Z,-4.37
2019-02-24T06:21:14.273Z,-4.33
2019-02-24T06:22:14.553Z,-4.36
2019-02-24T06:23:14.821Z,-4.30
2019-02-24T06:24:15.094Z,-4.27
2019-02-24T06:25:14.358Z,-4.33
2019-02-24T06:26:14.635Z,-4.33
2019-02-24T06:27:14.899Z,-4.37
2019-02-24T06:28:15.163Z,-4.40
2019-02-24T06:29:14.432Z,-4.63
2019-02-24T06:30:14.717Z,-4.65
2019-02-24T06:31:14.761Z,-4.63
2019-02-24T06:32:15.277Z,-4.56
2019-02-24T06:33:14.560Z,-4.54
2019-02-24T06:34:14.817Z,-4.56
2019-02-24T06:35:15.102Z,-4.56
2019-02-24T06:36:14.388Z,-4.54
2019-02-24T06:37:14.660Z,-4.50
2019-02-24T06:38:14.924Z,-4.50
2019-02-24T06:39:15.195Z,-4.46
2019-02-24T06:40:14.469Z,-4.45
2019-02-24T06:41:14.516Z,-4.36
2019-02-24T06:42:14.792Z,-4.30
2019-02-24T06:43:15.073Z,-4.29
2019-02-24T06:44:14.343Z,-4.36
2019-02-24T06:45:14.605Z,-4.37
2019-02-24T06:46:14.867Z,-4.36
2019-02-24T06:47:15.181Z,-4.37
2019-02-24T06:48:14.464Z,-4.36
2019-02-24T06:49:14.730Z,-4.30
2019-02-24T06:50:15.010Z,-4.30
2019-02-24T06:51:15.064Z,-4.27
2019-02-24T06:52:14.331Z,-4.25
2019-02-24T06:53:14.610Z,-4.21
2019-02-24T06:54:14.881Z,-4.29
2019-02-24T06:55:15.147Z,-4.29
2019-02-24T06:56:14.413Z,-4.35
2019-02-24T06:57:14.684Z,-4.37
2019-02-24T06:58:14.947Z,-4.36
2019-02-24T06:59:14.210Z,-4.36
2019-02-24T07:00:14.553Z,-4.36
2019-02-24T07:01:14.527Z,-4.37
2019-02-24T07:02:14.808Z,-4.37
2019-02-24T07:03:15.076Z,-4.39
2019-02-24T07:04:14.349Z,-4.37
2019-02-24T07:05:14.612Z,-4.33
2019-02-24T07:06:14.883Z,-4.29
2019-02-24T07:07:15.146Z,-4.15
2019-02-24T07:08:14.404Z,-4.01
2019-02-24T07:09:14.673Z,-3.84
2019-02-24T07:10:15.006Z,-3.86
2019-02-24T07:11:15.036Z,-3.88
2019-02-24T07:12:14.297Z,-3.87
2019-02-24T07:13:14.567Z,-3.86
2019-02-24T07:14:14.832Z,-3.88
2019-02-24T07:15:15.094Z,-3.84
2019-02-24T07:16:14.386Z,-3.81
2019-02-24T07:17:14.646Z,-3.76
2019-02-24T07:18:14.912Z,-3.73
2019-02-24T07:19:15.175Z,-3.70
2019-02-24T07:20:14.468Z,-3.71
2019-02-24T07:21:14.523Z,-3.70
2019-02-24T07:22:14.791Z,-3.67
2019-02-24T07:23:15.043Z,-3.61
2019-02-24T07:24:14.308Z,-3.60
2019-02-24T07:25:14.576Z,-3.49
2019-02-24T07:26:14.843Z,-3.46
2019-02-24T07:27:15.110Z,-3.41
2019-02-24T07:28:14.383Z,-3.36
2019-02-24T07:29:14.658Z,-3.37
2019-02-24T07:30:23.038Z,-3.39
2019-02-24T07:31:14.968Z,-3.37
2019-02-24T07:32:14.233Z,-3.32
2019-02-24T07:33:14.508Z,-3.25
2019-02-24T07:34:14.780Z,-3.15
2019-02-24T07:35:15.073Z,-3.04
2019-02-24T07:36:14.329Z,-3.04
2019-02-24T07:37:14.606Z,-2.90
2019-02-24T07:38:14.870Z,-2.92
2019-02-24T07:39:15.143Z,-2.87
2019-02-24T07:40:14.423Z,-2.84
2019-02-24T07:41:14.458Z,-2.71
2019-02-24T07:42:14.719Z,-2.70
2019-02-24T07:43:14.986Z,-2.50
2019-02-24T07:44:14.263Z,-2.25
2019-02-24T07:45:14.537Z,-2.25
2019-02-24T07:46:14.794Z,-2.25
2019-02-24T07:47:15.071Z,-2.21
2019-02-24T07:48:14.335Z,-2.21
2019-02-24T07:49:14.596Z,-2.23
2019-02-24T07:50:14.868Z,-2.05
2019-02-24T07:51:14.933Z,-1.62
2019-02-24T07:52:14.193Z,-1.47
2019-02-24T07:53:14.471Z,-1.52
2019-02-24T07:54:14.738Z,-1.62
2019-02-24T07:55:15.006Z,-1.59
2019-02-24T07:56:14.271Z,-1.49
2019-02-24T07:57:14.541Z,-1.32
2019-02-24T07:58:14.810Z,-1.35
2019-02-24T07:59:15.074Z,-1.42
2019-02-24T08:00:14.342Z,-1.43
2019-02-24T08:01:14.403Z,-1.29
2019-02-24T08:02:14.671Z,-1.08
2019-02-24T08:03:14.929Z,-0.91
2019-02-24T08:04:14.190Z,-0.88
2019-02-24T08:05:14.463Z,-0.82
2019-02-24T08:06:14.727Z,-0.88
2019-02-24T08:07:14.998Z,-0.80
2019-02-24T08:08:16.547Z,-0.76
2019-02-24T08:09:15.131Z,-0.78
2019-02-24T08:10:14.401Z,-0.70
2019-02-24T08:11:14.439Z,-0.76
2019-02-24T08:12:14.712Z,-0.76
2019-02-24T08:13:14.973Z,-0.71
2019-02-24T08:14:14.249Z,-0.60
2019-02-24T08:15:14.513Z,-0.43
2019-02-24T08:16:14.774Z,-0.39
2019-02-24T08:17:15.031Z,-0.28
2019-02-24T08:18:14.348Z,-0.22
2019-02-24T08:19:14.620Z,-0.29
2019-02-24T08:20:14.887Z,-0.12
2019-02-24T08:21:14.936Z,-0.15
2019-02-24T08:22:14.201Z,-0.10
2019-02-24T08:23:14.457Z,0.02
2019-02-24T08:24:14.726Z,-0.11
2019-02-24T08:25:14.998Z,-0.11
2019-02-24T08:26:14.253Z,0.08
2019-02-24T08:27:14.546Z,0.02
2019-02-24T08:28:14.803Z,0.23
2019-02-24T08:29:15.089Z,0.19
2019-02-24T08:30:14.357Z,0.23
2019-02-24T08:31:14.406Z,0.23
2019-02-24T08:32:14.665Z,0.23
2019-02-24T08:33:14.939Z,0.22
2019-02-24T08:34:14.583Z,0.38
2019-02-24T08:35:14.852Z,0.50
2019-02-24T08:36:15.117Z,0.53
2019-02-24T08:37:14.466Z,0.47
2019-02-24T08:38:14.727Z,0.57
2019-02-24T08:39:14.998Z,0.64
2019-02-24T08:40:14.274Z,0.58
2019-02-24T08:41:14.308Z,0.65
2019-02-24T08:42:14.568Z,0.76
2019-02-24T08:43:14.829Z,0.71
2019-02-24T08:44:15.106Z,0.82
2019-02-24T08:45:14.371Z,0.83
2019-02-24T08:46:14.640Z,0.93
2019-02-24T08:47:14.893Z,0.93
2019-02-24T08:48:15.185Z,0.98
2019-02-24T08:49:14.458Z,0.99
2019-02-24T08:50:14.736Z,0.93
2019-02-24T08:51:14.791Z,0.93
2019-02-24T08:52:15.051Z,1.09
2019-02-24T08:53:14.311Z,1.19
2019-02-24T08:54:14.585Z,1.18
2019-02-24T08:55:14.874Z,1.15
2019-02-24T08:56:15.141Z,1.43
2019-02-24T08:57:14.410Z,1.46
2019-02-24T08:58:14.688Z,1.46
2019-02-24T08:59:14.956Z,1.60
2019-02-24T09:00:14.243Z,1.58
2019-02-24T09:01:14.288Z,1.54
2019-02-24T09:02:14.550Z,1.72
2019-02-24T09:03:14.813Z,1.96
2019-02-24T09:04:15.095Z,1.99
2019-02-24T09:05:14.371Z,2.12
2019-02-24T09:06:14.652Z,2.05
2019-02-24T09:07:14.912Z,2.16
2019-02-24T09:08:15.176Z,2.38
2019-02-24T09:09:14.442Z,2.38
2019-02-24T09:10:14.718Z,2.45
2019-02-24T09:11:14.769Z,2.41
2019-02-24T09:12:15.072Z,2.48
2019-02-24T09:13:14.351Z,2.51
2019-02-24T09:14:14.615Z,2.50
2019-02-24T09:15:14.903Z,2.63
2019-02-24T09:16:15.184Z,2.69
2019-02-24T09:17:14.456Z,2.74
2019-02-24T09:18:14.731Z,2.76
2019-02-24T09:19:15.013Z,2.79
2019-02-24T09:20:14.306Z,2.84
2019-02-24T09:21:14.323Z,2.92
2019-02-24T09:22:14.584Z,2.91
2019-02-24T09:23:14.846Z,2.98
2019-02-24T09:24:15.126Z,3.04
2019-02-24T09:25:14.401Z,3.09
2019-02-24T09:26:14.668Z,3.10
2019-02-24T09:27:14.975Z,3.03
2019-02-24T09:28:14.237Z,3.02
2019-02-24T09:29:14.511Z,3.07
2019-02-24T09:30:14.801Z,3.02
2019-02-24T09:31:14.832Z,3.13
2019-02-24T09:32:15.105Z,3.12
2019-02-24T09:33:14.385Z,3.12
2019-02-24T09:34:14.659Z,3.20
2019-02-24T09:35:14.927Z,3.23
2019-02-24T09:36:14.185Z,3.28
2019-02-24T09:37:14.457Z,3.28
2019-02-24T09:38:14.731Z,3.26
2019-02-24T09:39:15.009Z,3.24
2019-02-24T09:40:14.297Z,3.28
2019-02-24T09:41:14.315Z,3.31
2019-02-24T09:42:14.595Z,3.31
2019-02-24T09:43:14.852Z,3.26
2019-02-24T09:44:15.111Z,3.31
2019-02-24T09:45:14.380Z,3.37
2019-02-24T09:46:14.654Z,3.34
2019-02-24T09:47:14.920Z,3.26
2019-02-24T09:48:14.191Z,3.34
2019-02-24T09:49:14.469Z,3.41
2019-02-24T09:50:14.745Z,3.40
2019-02-24T09:51:14.798Z,3.39
2019-02-24T09:52:15.063Z,3.43
2019-02-24T09:53:14.327Z,3.40
2019-02-24T09:54:14.613Z,3.40
2019-02-24T09:55:14.869Z,3.39
2019-02-24T09:56:15.138Z,3.39
2019-02-24T09:57:14.405Z,3.40
2019-02-24T09:58:14.672Z,3.40
2019-02-24T09:59:14.937Z,3.46
2019-02-24T10:00:14.225Z,3.50
2019-02-24T10:01:14.253Z,3.51
2019-02-24T10:02:14.528Z,3.43
2019-02-24T10:03:14.784Z,3.49
2019-02-24T10:04:15.055Z,3.51
2019-02-24T10:05:14.324Z,3.46
2019-02-24T10:06:14.589Z,3.49
2019-02-24T10:07:14.865Z,3.62
2019-02-24T10:08:15.130Z,3.65
2019-02-24T10:09:14.395Z,3.67
2019-02-24T10:10:14.674Z,3.75
2019-02-24T10:11:14.708Z,3.79
2019-02-24T10:12:14.967Z,3.78
2019-02-24T10:13:14.228Z,3.81
2019-02-24T10:14:14.499Z,3.83
2019-02-24T10:15:14.768Z,3.92
2019-02-24T10:16:15.036Z,3.92
2019-02-24T10:17:14.310Z,3.92
2019-02-24T10:18:14.583Z,3.95
2019-02-24T10:19:14.851Z,3.99
2019-02-24T10:20:15.189Z,4.00
2019-02-24T10:21:14.224Z,4.02
2019-02-24T10:22:14.498Z,4.08
2019-02-24T10:23:14.806Z,4.12
2019-02-24T10:24:15.074Z,4.10
2019-02-24T10:25:14.360Z,4.09
2019-02-24T10:26:14.624Z,4.00
2019-02-24T10:27:14.893Z,4.03
2019-02-24T10:28:15.160Z,4.10
2019-02-24T10:29:14.435Z,4.20
2019-02-24T10:30:14.716Z,4.06
2019-02-24T10:31:19.722Z,3.99
2019-02-24T10:32:14.491Z,4.09
2019-02-24T10:33:14.763Z,4.10
2019-02-24T10:34:15.025Z,4.03
2019-02-24T10:35:14.287Z,3.98
2019-02-24T10:36:14.544Z,4.09
2019-02-24T10:37:14.806Z,4.09
2019-02-24T10:38:15.068Z,4.40
2019-02-24T10:39:14.344Z,4.28
2019-02-24T10:40:14.637Z,4.33
2019-02-24T10:41:14.645Z,4.46
2019-02-24T10:42:14.913Z,4.41
2019-02-24T10:43:15.187Z,4.34
2019-02-24T10:44:14.469Z,4.58
2019-02-24T10:45:14.746Z,4.63
2019-02-24T10:46:15.032Z,4.65
2019-02-24T10:47:14.296Z,4.47
2019-02-24T10:48:14.560Z,4.47
2019-02-24T10:49:14.829Z,4.60
2019-02-24T10:50:15.095Z,4.71
2019-02-24T10:51:15.149Z,4.79
2019-02-24T10:52:14.410Z,4.86
2019-02-24T10:53:14.676Z,4.89
2019-02-24T10:54:14.936Z,4.85
2019-02-24T10:55:14.200Z,4.91
2019-02-24T10:56:14.468Z,5.00
2019-02-24T10:57:14.738Z,5.12
2019-02-24T10:58:15.007Z,5.19
2019-02-24T10:59:14.276Z,5.13
2019-02-24T11:00:14.570Z,5.06
2019-02-24T11:01:14.595Z,4.99
2019-02-24T11:02:14.865Z,4.88
2019-02-24T11:03:15.128Z,4.92
2019-02-24T11:04:14.397Z,5.12
2019-02-24T11:05:14.672Z,5.10
2019-02-24T11:06:14.932Z,5.00
2019-02-24T11:07:14.214Z,5.13
2019-02-24T11:08:14.488Z,5.07
2019-02-24T11:09:14.767Z,5.13
2019-02-24T11:10:15.045Z,5.22
2019-02-24T11:11:15.087Z,5.33
2019-02-24T11:12:14.346Z,5.43
2019-02-24T11:13:14.633Z,5.52
2019-02-24T11:14:14.901Z,5.54
2019-02-24T11:15:15.169Z,5.64
2019-02-24T11:16:14.437Z,5.60
2019-02-24T11:17:14.703Z,5.67
2019-02-24T11:18:14.969Z,5.45
2019-02-24T11:19:14.232Z,5.64
2019-02-24T11:20:14.514Z,5.52
2019-02-24T11:21:14.542Z,5.58
2019-02-24T11:22:14.807Z,5.67
2019-02-24T11:23:15.074Z,5.72
2019-02-24T11:24:14.332Z,5.78
2019-02-24T11:25:14.600Z,5.61
2019-02-24T11:26:14.865Z,5.44
2019-02-24T11:27:15.126Z,5.28
2019-02-24T11:28:14.389Z,5.41
2019-02-24T11:29:14.652Z,5.43
2019-02-24T11:30:14.922Z,5.57
2019-02-24T11:31:14.967Z,5.61
2019-02-24T11:32:14.222Z,5.71
2019-02-24T11:33:14.479Z,5.78
2019-02-24T11:34:14.738Z,5.82
2019-02-24T11:35:14.999Z,5.77
2019-02-24T11:36:14.263Z,5.70
2019-02-24T11:37:14.527Z,5.78
2019-02-24T11:38:14.830Z,5.85
2019-02-24T11:39:15.099Z,5.81
2019-02-24T11:40:14.380Z,5.75
2019-02-24T11:41:14.417Z,5.62
2019-02-24T11:42:14.683Z,5.62
2019-02-24T11:43:15.451Z,5.82
2019-02-24T11:44:14.796Z,5.92
2019-02-24T11:45:15.111Z,5.93
2019-02-24T11:46:14.372Z,5.93
2019-02-24T11:47:14.633Z,5.98
2019-02-24T11:48:14.902Z,5.96
2019-02-24T11:49:15.163Z,5.96
2019-02-24T11:50:14.434Z,5.84
2019-02-24T11:51:14.491Z,5.72
2019-02-24T11:52:14.755Z,5.72
2019-02-24T11:53:15.016Z,5.79
2019-02-24T11:54:14.289Z,5.77
2019-02-24T11:55:14.558Z,5.74
2019-02-24T11:56:14.823Z,5.72
2019-02-24T11:57:15.082Z,5.70
2019-02-24T11:58:14.343Z,5.71
2019-02-24T11:59:14.603Z,5.71
2019-02-24T12:00:14.894Z,5.70
2019-02-24T12:01:14.921Z,5.64
2019-02-24T12:02:14.186Z,5.64
2019-02-24T12:03:14.446Z,5.68
2019-02-24T12:04:14.717Z,5.74
2019-02-24T12:05:14.997Z,5.77
2019-02-24T12:06:14.261Z,5.78
2019-02-24T12:07:14.536Z,5.99
2019-02-24T12:08:14.797Z,5.96
2019-02-24T12:09:15.070Z,5.93
2019-02-24T12:10:14.381Z,5.98
2019-02-24T12:11:14.393Z,6.08
2019-02-24T12:12:14.670Z,6.17
2019-02-24T12:13:14.929Z,6.23
2019-02-24T12:14:14.194Z,6.30
2019-02-24T12:15:14.463Z,6.23
2019-02-24T12:16:14.747Z,6.10
2019-02-24T12:17:15.015Z,6.20
2019-02-24T12:18:14.275Z,6.20
2019-02-24T12:19:14.545Z,6.14
2019-02-24T12:20:14.830Z,6.23
2019-02-24T12:21:16.075Z,6.20
2019-02-24T12:22:14.341Z,6.16
2019-02-24T12:23:14.616Z,6.24
2019-02-24T12:24:14.897Z,6.26
2019-02-24T12:25:15.163Z,6.43
2019-02-24T12:26:14.431Z,6.43
2019-02-24T12:27:14.701Z,6.64
2019-02-24T12:28:14.966Z,6.65
2019-02-24T12:29:14.230Z,6.68
2019-02-24T12:30:14.502Z,6.78
2019-02-24T12:31:14.554Z,6.64
2019-02-24T12:32:14.816Z,6.63
2019-02-24T12:33:15.081Z,6.69
2019-02-24T12:34:14.348Z,6.55
2019-02-24T12:35:14.608Z,6.64
2019-02-24T12:36:14.875Z,6.57
2019-02-24T12:37:15.142Z,6.64
2019-02-24T12:38:14.405Z,6.64
2019-02-24T12:39:14.669Z,6.58
2019-02-24T12:40:14.943Z,6.72
2019-02-24T12:41:15.477Z,6.85
2019-02-24T12:42:14.824Z,6.84
2019-02-24T12:43:15.086Z,6.89
2019-02-24T12:44:14.351Z,6.95
2019-02-24T12:45:14.631Z,6.92
2019-02-24T12:46:14.906Z,6.92
2019-02-24T12:47:15.175Z,7.02
2019-02-24T12:48:14.442Z,7.05
2019-02-24T12:49:14.743Z,7.16
2019-02-24T12:50:15.018Z,7.17
2019-02-24T12:51:15.074Z,7.17
2019-02-24T12:52:14.343Z,7.31
2019-02-24T12:53:14.604Z,7.40
2019-02-24T12:54:14.865Z,7.51
2019-02-24T12:55:15.127Z,7.44
2019-02-24T12:56:14.973Z,7.29
2019-02-24T12:57:14.316Z,7.33
2019-02-24T12:58:14.591Z,7.44
2019-02-24T12:59:14.869Z,7.51
2019-02-24T13:00:15.180Z,7.84
2019-02-24T13:01:14.188Z,7.84